sensor_id;sensor_type;location;lat;lon;timestamp;temperature;humidity
16594;DHT22;8410;52.532;13.336;2022-07-29T00:01:01;16.60;94.30
16594;DHT22;8410;52.532;13.336;2022-07-29T00:03:29;16.50;94.50
16594;DHT22;8410;52.532;13.336;2022-07-29T00:05:57;16.50;94.60
16594;DHT22;8410;52.532;13.336;2022-07-29T00:08:26;16.50;94.80
16594;DHT22;8410;52.532;13.336;2022-07-29T00:10:54;16.40;95.20
16594;DHT22;8410;52.532;13.336;2022-07-29T00:13:23;16.40;95.30
16594;DHT22;8410;52.532;13.336;2022-07-29T00:15:58;16.40;95.30
16594;DHT22;8410;52.532;13.336;2022-07-29T00:18:30;16.40;95.60
16594;DHT22;8410;52.532;13.336;2022-07-29T00:20:58;16.40;95.90
16594;DHT22;8410;52.532;13.336;2022-07-29T00:23:26;16.30;96.00
16594;DHT22;8410;52.532;13.336;2022-07-29T00:25:57;16.40;96.10
16594;DHT22;8410;52.532;13.336;2022-07-29T00:28:26;16.30;96.60
16594;DHT22;8410;52.532;13.336;2022-07-29T00:30:54;16.40;96.30
16594;DHT22;8410;52.532;13.336;2022-07-29T00:33:22;16.40;96.60
16594;DHT22;8410;52.532;13.336;2022-07-29T00:35:50;16.30;96.90
16594;DHT22;8410;52.532;13.336;2022-07-29T00:38:19;16.20;97.40
16594;DHT22;8410;52.532;13.336;2022-07-29T00:40:47;16.20;97.40
16594;DHT22;8410;52.532;13.336;2022-07-29T00:43:17;16.20;97.50
16594;DHT22;8410;52.532;13.336;2022-07-29T00:45:48;16.20;97.60
16594;DHT22;8410;52.532;13.336;2022-07-29T00:48:16;16.10;97.80
16594;DHT22;8410;52.532;13.336;2022-07-29T00:50:44;16.10;98.20
16594;DHT22;8410;52.532;13.336;2022-07-29T00:53:12;16.10;98.20
16594;DHT22;8410;52.532;13.336;2022-07-29T00:55:40;16.10;98.30
16594;DHT22;8410;52.532;13.336;2022-07-29T00:58:09;16.30;98.40
16594;DHT22;8410;52.532;13.336;2022-07-29T01:00:39;16.20;98.30
16594;DHT22;8410;52.532;13.336;2022-07-29T01:03:11;16.20;98.30
16594;DHT22;8410;52.532;13.336;2022-07-29T01:05:41;16.10;98.80
16594;DHT22;8410;52.532;13.336;2022-07-29T01:08:17;16.10;98.80
16594;DHT22;8410;52.532;13.336;2022-07-29T01:10:47;16.00;99.40
16594;DHT22;8410;52.532;13.336;2022-07-29T01:13:16;15.90;99.60
16594;DHT22;8410;52.532;13.336;2022-07-29T01:15:49;15.90;99.60
16594;DHT22;8410;52.532;13.336;2022-07-29T01:18:30;16.00;99.60
16594;DHT22;8410;52.532;13.336;2022-07-29T01:21:18;15.90;99.90
16594;DHT22;8410;52.532;13.336;2022-07-29T01:24:14;15.90;99.90
16594;DHT22;8410;52.532;13.336;2022-07-29T01:26:59;15.80;99.90
16594;DHT22;8410;52.532;13.336;2022-07-29T01:29:46;15.90;99.90
16594;DHT22;8410;52.532;13.336;2022-07-29T01:32:26;15.80;99.90
16594;DHT22;8410;52.532;13.336;2022-07-29T01:35:06;15.70;99.90
16594;DHT22;8410;52.532;13.336;2022-07-29T01:37:47;15.70;99.90
16594;DHT22;8410;52.532;13.336;2022-07-29T01:40:20;15.70;99.90
16594;DHT22;8410;52.532;13.336;2022-07-29T01:42:54;15.70;99.90
16594;DHT22;8410;52.532;13.336;2022-07-29T01:45:29;15.70;99.90
16594;DHT22;8410;52.532;13.336;2022-07-29T01:48:10;15.60;99.90
16594;DHT22;8410;52.532;13.336;2022-07-29T01:50:46;15.60;99.90
16594;DHT22;8410;52.532;13.336;2022-07-29T01:53:25;15.60;99.90
16594;DHT22;8410;52.532;13.336;2022-07-29T01:56:04;15.70;99.90
16594;DHT22;8410;52.532;13.336;2022-07-29T01:58:35;15.50;99.90
16594;DHT22;8410;52.532;13.336;2022-07-29T02:01:08;15.50;99.90
16594;DHT22;8410;52.532;13.336;2022-07-29T02:03:39;15.50;99.90
16594;DHT22;8410;52.532;13.336;2022-07-29T02:06:16;15.50;99.90
16594;DHT22;8410;52.532;13.336;2022-07-29T02:08:49;15.50;99.90
16594;DHT22;8410;52.532;13.336;2022-07-29T02:11:18;15.40;99.90
16594;DHT22;8410;52.532;13.336;2022-07-29T02:13:47;15.50;99.90
16594;DHT22;8410;52.532;13.336;2022-07-29T02:16:21;15.30;99.90
16594;DHT22;8410;52.532;13.336;2022-07-29T02:18:52;15.30;99.90
16594;DHT22;8410;52.532;13.336;2022-07-29T02:21:24;15.30;99.90
16594;DHT22;8410;52.532;13.336;2022-07-29T02:23:54;15.40;99.90
16594;DHT22;8410;52.532;13.336;2022-07-29T02:26:27;15.40;99.90
16594;DHT22;8410;52.532;13.336;2022-07-29T02:28:59;15.50;99.90
16594;DHT22;8410;52.532;13.336;2022-07-29T02:31:33;15.40;99.90
16594;DHT22;8410;52.532;13.336;2022-07-29T02:34:06;15.30;99.90
16594;DHT22;8410;52.532;13.336;2022-07-29T02:36:36;15.30;99.90
16594;DHT22;8410;52.532;13.336;2022-07-29T02:39:06;15.40;99.90
16594;DHT22;8410;52.532;13.336;2022-07-29T02:41:40;15.30;99.90
16594;DHT22;8410;52.532;13.336;2022-07-29T02:44:12;15.30;99.90
16594;DHT22;8410;52.532;13.336;2022-07-29T02:46:47;15.30;99.90
16594;DHT22;8410;52.532;13.336;2022-07-29T02:49:31;15.30;99.90
16594;DHT22;8410;52.532;13.336;2022-07-29T02:52:08;15.30;99.90
16594;DHT22;8410;52.532;13.336;2022-07-29T02:54:44;15.20;99.90
16594;DHT22;8410;52.532;13.336;2022-07-29T02:57:21;15.20;99.90
16594;DHT22;8410;52.532;13.336;2022-07-29T02:59:57;15.20;99.90
16594;DHT22;8410;52.532;13.336;2022-07-29T03:02:28;15.20;99.90
16594;DHT22;8410;52.532;13.336;2022-07-29T03:05:02;15.10;99.90
16594;DHT22;8410;52.532;13.336;2022-07-29T03:07:31;15.00;99.90
16594;DHT22;8410;52.532;13.336;2022-07-29T03:10:02;15.00;99.90
16594;DHT22;8410;52.532;13.336;2022-07-29T03:12:39;15.00;99.90
16594;DHT22;8410;52.532;13.336;2022-07-29T03:15:09;15.00;99.90
16594;DHT22;8410;52.532;13.336;2022-07-29T03:17:39;15.10;99.90
16594;DHT22;8410;52.532;13.336;2022-07-29T03:20:09;15.10;99.90
16594;DHT22;8410;52.532;13.336;2022-07-29T03:22:39;15.10;99.90
16594;DHT22;8410;52.532;13.336;2022-07-29T03:25:11;15.10;99.90
16594;DHT22;8410;52.532;13.336;2022-07-29T03:27:40;15.20;99.90
16594;DHT22;8410;52.532;13.336;2022-07-29T03:30:09;15.00;99.90
16594;DHT22;8410;52.532;13.336;2022-07-29T03:32:49;15.20;99.90
16594;DHT22;8410;52.532;13.336;2022-07-29T03:35:18;15.00;99.90
16594;DHT22;8410;52.532;13.336;2022-07-29T03:37:47;15.00;99.90
16594;DHT22;8410;52.532;13.336;2022-07-29T03:40:18;14.90;99.90
16594;DHT22;8410;52.532;13.336;2022-07-29T03:42:51;15.00;99.90
16594;DHT22;8410;52.532;13.336;2022-07-29T03:45:22;15.00;99.90
16594;DHT22;8410;52.532;13.336;2022-07-29T03:47:58;15.00;99.90
16594;DHT22;8410;52.532;13.336;2022-07-29T03:50:28;15.00;99.90
16594;DHT22;8410;52.532;13.336;2022-07-29T03:52:58;15.00;99.90
16594;DHT22;8410;52.532;13.336;2022-07-29T03:55:28;15.00;99.90
16594;DHT22;8410;52.532;13.336;2022-07-29T03:58:00;15.00;99.90
16594;DHT22;8410;52.532;13.336;2022-07-29T04:00:30;15.10;99.90
16594;DHT22;8410;52.532;13.336;2022-07-29T04:03:02;15.20;99.90
16594;DHT22;8410;52.532;13.336;2022-07-29T04:05:37;15.10;99.90
16594;DHT22;8410;52.532;13.336;2022-07-29T04:08:05;15.20;99.90
16594;DHT22;8410;52.532;13.336;2022-07-29T04:10:33;15.10;99.90
16594;DHT22;8410;52.532;13.336;2022-07-29T04:13:01;15.10;99.90
16594;DHT22;8410;52.532;13.336;2022-07-29T04:15:29;15.20;99.90
16594;DHT22;8410;52.532;13.336;2022-07-29T04:17:58;15.20;99.90
16594;DHT22;8410;52.532;13.336;2022-07-29T04:20:27;15.30;99.90
16594;DHT22;8410;52.532;13.336;2022-07-29T04:22:55;15.30;99.90
16594;DHT22;8410;52.532;13.336;2022-07-29T04:25:23;15.40;99.90
16594;DHT22;8410;52.532;13.336;2022-07-29T04:27:51;15.40;99.90
16594;DHT22;8410;52.532;13.336;2022-07-29T04:30:29;15.40;99.90
16594;DHT22;8410;52.532;13.336;2022-07-29T04:32:58;15.80;99.90
16594;DHT22;8410;52.532;13.336;2022-07-29T04:35:29;15.90;99.90
16594;DHT22;8410;52.532;13.336;2022-07-29T04:38:05;15.90;99.90
16594;DHT22;8410;52.532;13.336;2022-07-29T04:40:41;15.80;99.90
16594;DHT22;8410;52.532;13.336;2022-07-29T04:43:09;15.80;99.90
16594;DHT22;8410;52.532;13.336;2022-07-29T04:45:39;15.80;99.90
16594;DHT22;8410;52.532;13.336;2022-07-29T04:48:07;15.90;99.90
16594;DHT22;8410;52.532;13.336;2022-07-29T04:50:39;15.90;99.90
16594;DHT22;8410;52.532;13.336;2022-07-29T04:53:07;16.20;99.90
16594;DHT22;8410;52.532;13.336;2022-07-29T04:55:35;15.90;99.90
16594;DHT22;8410;52.532;13.336;2022-07-29T04:58:04;15.80;99.90
16594;DHT22;8410;52.532;13.336;2022-07-29T05:00:32;15.80;99.90
16594;DHT22;8410;52.532;13.336;2022-07-29T05:03:01;15.80;99.90
16594;DHT22;8410;52.532;13.336;2022-07-29T05:05:29;15.70;99.90
16594;DHT22;8410;52.532;13.336;2022-07-29T05:07:58;16.00;99.90
16594;DHT22;8410;52.532;13.336;2022-07-29T05:10:26;16.00;99.90
16594;DHT22;8410;52.532;13.336;2022-07-29T05:12:55;16.10;99.90
16594;DHT22;8410;52.532;13.336;2022-07-29T05:15:23;16.20;99.90
16594;DHT22;8410;52.532;13.336;2022-07-29T05:17:51;16.30;99.90
16594;DHT22;8410;52.532;13.336;2022-07-29T05:20:18;16.30;99.90
16594;DHT22;8410;52.532;13.336;2022-07-29T05:22:52;16.20;99.90
16594;DHT22;8410;52.532;13.336;2022-07-29T05:25:22;16.40;99.90
16594;DHT22;8410;52.532;13.336;2022-07-29T05:28:09;16.30;99.90
16594;DHT22;8410;52.532;13.336;2022-07-29T05:30:38;16.50;99.90
16594;DHT22;8410;52.532;13.336;2022-07-29T05:33:06;16.60;99.90
16594;DHT22;8410;52.532;13.336;2022-07-29T05:35:54;16.40;99.90
16594;DHT22;8410;52.532;13.336;2022-07-29T05:38:26;16.50;99.90
16594;DHT22;8410;52.532;13.336;2022-07-29T05:40:58;16.70;99.90
16594;DHT22;8410;52.532;13.336;2022-07-29T05:43:26;16.50;99.90
16594;DHT22;8410;52.532;13.336;2022-07-29T05:45:55;16.40;99.90
16594;DHT22;8410;52.532;13.336;2022-07-29T05:48:23;16.50;99.90
16594;DHT22;8410;52.532;13.336;2022-07-29T05:50:52;16.50;99.90
16594;DHT22;8410;52.532;13.336;2022-07-29T05:53:21;16.50;99.90
16594;DHT22;8410;52.532;13.336;2022-07-29T05:55:51;16.60;99.90
16594;DHT22;8410;52.532;13.336;2022-07-29T05:58:20;16.70;99.90
16594;DHT22;8410;52.532;13.336;2022-07-29T06:00:49;16.70;99.90
16594;DHT22;8410;52.532;13.336;2022-07-29T06:03:16;16.70;99.90
16594;DHT22;8410;52.532;13.336;2022-07-29T06:05:44;17.00;99.80
16594;DHT22;8410;52.532;13.336;2022-07-29T06:08:13;17.20;99.10
16594;DHT22;8410;52.532;13.336;2022-07-29T06:10:41;17.10;99.30
16594;DHT22;8410;52.532;13.336;2022-07-29T06:13:09;17.20;98.90
16594;DHT22;8410;52.532;13.336;2022-07-29T06:15:39;17.30;98.90
16594;DHT22;8410;52.532;13.336;2022-07-29T06:18:07;17.40;98.30
16594;DHT22;8410;52.532;13.336;2022-07-29T06:20:36;17.60;98.20
16594;DHT22;8410;52.532;13.336;2022-07-29T06:23:05;17.80;97.10
16594;DHT22;8410;52.532;13.336;2022-07-29T06:25:33;17.80;97.10
16594;DHT22;8410;52.532;13.336;2022-07-29T06:28:03;17.70;97.40
16594;DHT22;8410;52.532;13.336;2022-07-29T06:30:31;17.80;97.30
16594;DHT22;8410;52.532;13.336;2022-07-29T06:33:01;17.80;97.20
16594;DHT22;8410;52.532;13.336;2022-07-29T06:35:30;17.80;97.60
16594;DHT22;8410;52.532;13.336;2022-07-29T06:38:08;18.00;96.80
16594;DHT22;8410;52.532;13.336;2022-07-29T06:40:56;18.10;96.90
16594;DHT22;8410;52.532;13.336;2022-07-29T06:43:29;18.10;97.20
16594;DHT22;8410;52.532;13.336;2022-07-29T06:46:01;18.00;97.10
16594;DHT22;8410;52.532;13.336;2022-07-29T06:48:33;18.00;96.90
16594;DHT22;8410;52.532;13.336;2022-07-29T06:51:03;18.10;96.90
16594;DHT22;8410;52.532;13.336;2022-07-29T06:53:32;18.10;96.50
16594;DHT22;8410;52.532;13.336;2022-07-29T06:56:01;18.30;96.20
16594;DHT22;8410;52.532;13.336;2022-07-29T06:58:30;18.30;95.80
16594;DHT22;8410;52.532;13.336;2022-07-29T07:01:01;18.30;96.00
16594;DHT22;8410;52.532;13.336;2022-07-29T07:03:33;18.40;95.80
16594;DHT22;8410;52.532;13.336;2022-07-29T07:06:01;18.50;96.00
16594;DHT22;8410;52.532;13.336;2022-07-29T07:08:29;18.50;95.50
16594;DHT22;8410;52.532;13.336;2022-07-29T07:10:58;18.70;95.50
16594;DHT22;8410;52.532;13.336;2022-07-29T07:13:26;19.10;94.70
16594;DHT22;8410;52.532;13.336;2022-07-29T07:15:56;19.30;94.30
16594;DHT22;8410;52.532;13.336;2022-07-29T07:18:24;19.50;94.00
16594;DHT22;8410;52.532;13.336;2022-07-29T07:20:53;19.90;93.60
16594;DHT22;8410;52.532;13.336;2022-07-29T07:23:21;19.80;93.00
16594;DHT22;8410;52.532;13.336;2022-07-29T07:25:49;19.40;93.50
16594;DHT22;8410;52.532;13.336;2022-07-29T07:28:17;19.20;93.90
16594;DHT22;8410;52.532;13.336;2022-07-29T07:30:51;19.40;93.70
16594;DHT22;8410;52.532;13.336;2022-07-29T07:33:20;19.50;93.60
16594;DHT22;8410;52.532;13.336;2022-07-29T07:35:48;19.80;93.10
16594;DHT22;8410;52.532;13.336;2022-07-29T07:38:17;20.10;93.10
16594;DHT22;8410;52.532;13.336;2022-07-29T07:40:45;20.10;92.40
16594;DHT22;8410;52.532;13.336;2022-07-29T07:43:13;20.40;92.10
16594;DHT22;8410;52.532;13.336;2022-07-29T07:45:42;20.50;92.00
16594;DHT22;8410;52.532;13.336;2022-07-29T07:48:10;20.50;91.70
16594;DHT22;8410;52.532;13.336;2022-07-29T07:50:38;20.40;91.40
16594;DHT22;8410;52.532;13.336;2022-07-29T07:53:06;20.60;91.40
16594;DHT22;8410;52.532;13.336;2022-07-29T07:55:39;20.60;90.90
16594;DHT22;8410;52.532;13.336;2022-07-29T07:58:28;20.70;90.90
16594;DHT22;8410;52.532;13.336;2022-07-29T08:00:56;21.30;90.20
16594;DHT22;8410;52.532;13.336;2022-07-29T08:03:25;21.30;89.00
16594;DHT22;8410;52.532;13.336;2022-07-29T08:05:53;21.40;88.60
16594;DHT22;8410;52.532;13.336;2022-07-29T08:08:21;21.70;87.30
16594;DHT22;8410;52.532;13.336;2022-07-29T08:10:50;21.70;86.60
16594;DHT22;8410;52.532;13.336;2022-07-29T08:13:23;21.90;86.60
16594;DHT22;8410;52.532;13.336;2022-07-29T08:15:54;21.60;86.50
16594;DHT22;8410;52.532;13.336;2022-07-29T08:18:28;21.60;85.40
16594;DHT22;8410;52.532;13.336;2022-07-29T08:20:58;21.90;85.20
16594;DHT22;8410;52.532;13.336;2022-07-29T08:23:26;22.10;84.50
16594;DHT22;8410;52.532;13.336;2022-07-29T08:26:17;22.30;84.10
16594;DHT22;8410;52.532;13.336;2022-07-29T08:28:46;22.40;83.00
16594;DHT22;8410;52.532;13.336;2022-07-29T08:31:17;22.60;80.40
16594;DHT22;8410;52.532;13.336;2022-07-29T08:33:45;22.50;80.40
16594;DHT22;8410;52.532;13.336;2022-07-29T08:36:13;22.70;80.60
16594;DHT22;8410;52.532;13.336;2022-07-29T08:38:41;22.90;78.90
16594;DHT22;8410;52.532;13.336;2022-07-29T08:41:09;23.00;79.20
16594;DHT22;8410;52.532;13.336;2022-07-29T08:43:39;23.00;79.20
16594;DHT22;8410;52.532;13.336;2022-07-29T08:46:08;23.20;78.20
16594;DHT22;8410;52.532;13.336;2022-07-29T08:48:36;23.10;77.70
16594;DHT22;8410;52.532;13.336;2022-07-29T08:51:07;23.20;78.30
16594;DHT22;8410;52.532;13.336;2022-07-29T08:53:36;23.40;78.10
16594;DHT22;8410;52.532;13.336;2022-07-29T08:56:04;23.30;75.30
16594;DHT22;8410;52.532;13.336;2022-07-29T08:58:34;23.30;75.50
16594;DHT22;8410;52.532;13.336;2022-07-29T09:01:06;23.10;76.00
16594;DHT22;8410;52.532;13.336;2022-07-29T09:03:40;23.10;76.50
16594;DHT22;8410;52.532;13.336;2022-07-29T09:06:08;23.20;75.90
16594;DHT22;8410;52.532;13.336;2022-07-29T09:08:37;23.30;75.10
16594;DHT22;8410;52.532;13.336;2022-07-29T09:11:05;23.30;76.30
16594;DHT22;8410;52.532;13.336;2022-07-29T09:13:33;23.30;75.20
16594;DHT22;8410;52.532;13.336;2022-07-29T09:16:04;23.50;75.50
16594;DHT22;8410;52.532;13.336;2022-07-29T09:18:36;23.50;74.50
16594;DHT22;8410;52.532;13.336;2022-07-29T09:21:08;23.80;74.50
16594;DHT22;8410;52.532;13.336;2022-07-29T09:24:02;23.90;74.00
16594;DHT22;8410;52.532;13.336;2022-07-29T09:26:35;24.20;74.00
16594;DHT22;8410;52.532;13.336;2022-07-29T09:29:11;24.30;73.20
16594;DHT22;8410;52.532;13.336;2022-07-29T09:31:43;24.10;72.50
16594;DHT22;8410;52.532;13.336;2022-07-29T09:34:15;23.80;73.40
16594;DHT22;8410;52.532;13.336;2022-07-29T09:36:46;23.80;73.10
16594;DHT22;8410;52.532;13.336;2022-07-29T09:39:27;23.80;72.90
16594;DHT22;8410;52.532;13.336;2022-07-29T09:41:58;23.90;73.30
16594;DHT22;8410;52.532;13.336;2022-07-29T09:44:41;23.80;72.80
16594;DHT22;8410;52.532;13.336;2022-07-29T09:47:11;23.90;72.10
16594;DHT22;8410;52.532;13.336;2022-07-29T09:49:51;23.80;70.40
16594;DHT22;8410;52.532;13.336;2022-07-29T09:52:21;23.80;70.80
16594;DHT22;8410;52.532;13.336;2022-07-29T09:54:49;23.80;69.60
16594;DHT22;8410;52.532;13.336;2022-07-29T09:57:25;23.80;69.40
16594;DHT22;8410;52.532;13.336;2022-07-29T09:59:59;23.90;68.90
16594;DHT22;8410;52.532;13.336;2022-07-29T10:02:31;24.00;68.70
16594;DHT22;8410;52.532;13.336;2022-07-29T10:05:04;24.00;68.10
16594;DHT22;8410;52.532;13.336;2022-07-29T10:07:44;24.40;68.70
16594;DHT22;8410;52.532;13.336;2022-07-29T10:10:21;24.50;68.80
16594;DHT22;8410;52.532;13.336;2022-07-29T10:12:55;24.80;68.40
16594;DHT22;8410;52.532;13.336;2022-07-29T10:15:33;24.40;67.60
16594;DHT22;8410;52.532;13.336;2022-07-29T10:18:07;24.30;67.80
16594;DHT22;8410;52.532;13.336;2022-07-29T10:20:36;24.60;67.80
16594;DHT22;8410;52.532;13.336;2022-07-29T10:23:05;24.60;67.70
16594;DHT22;8410;52.532;13.336;2022-07-29T10:25:33;24.30;67.00
16594;DHT22;8410;52.532;13.336;2022-07-29T10:28:01;24.20;66.70
16594;DHT22;8410;52.532;13.336;2022-07-29T10:30:31;24.30;65.50
16594;DHT22;8410;52.532;13.336;2022-07-29T10:33:28;24.30;65.20
16594;DHT22;8410;52.532;13.336;2022-07-29T10:39:19;24.20;64.90
16594;DHT22;8410;52.532;13.336;2022-07-29T10:42:15;24.20;65.40
16594;DHT22;8410;52.532;13.336;2022-07-29T10:45:00;24.30;64.40
16594;DHT22;8410;52.532;13.336;2022-07-29T10:47:31;24.50;64.40
16594;DHT22;8410;52.532;13.336;2022-07-29T10:50:04;24.60;64.60
16594;DHT22;8410;52.532;13.336;2022-07-29T10:52:52;24.80;64.50
16594;DHT22;8410;52.532;13.336;2022-07-29T10:55:31;24.90;64.60
16594;DHT22;8410;52.532;13.336;2022-07-29T10:58:14;25.10;64.10
16594;DHT22;8410;52.532;13.336;2022-07-29T11:00:45;25.00;64.20
16594;DHT22;8410;52.532;13.336;2022-07-29T11:03:42;24.90;65.20
16594;DHT22;8410;52.532;13.336;2022-07-29T11:09:37;24.90;64.30
16594;DHT22;8410;52.532;13.336;2022-07-29T11:12:49;24.80;64.00
16594;DHT22;8410;52.532;13.336;2022-07-29T11:15:19;24.70;64.10
16594;DHT22;8410;52.532;13.336;2022-07-29T11:18:07;24.80;64.60
16594;DHT22;8410;52.532;13.336;2022-07-29T11:20:42;25.10;64.50
16594;DHT22;8410;52.532;13.336;2022-07-29T11:23:21;25.30;64.00
16594;DHT22;8410;52.532;13.336;2022-07-29T11:26:14;25.60;63.50
16594;DHT22;8410;52.532;13.336;2022-07-29T11:29:13;25.70;63.20
16594;DHT22;8410;52.532;13.336;2022-07-29T11:31:50;25.40;62.40
16594;DHT22;8410;52.532;13.336;2022-07-29T11:34:24;25.50;63.00
16594;DHT22;8410;52.532;13.336;2022-07-29T11:37:15;25.70;62.90
16594;DHT22;8410;52.532;13.336;2022-07-29T11:40:14;25.80;62.50
16594;DHT22;8410;52.532;13.336;2022-07-29T11:42:45;25.70;62.60
16594;DHT22;8410;52.532;13.336;2022-07-29T11:45:21;25.50;63.10
16594;DHT22;8410;52.532;13.336;2022-07-29T11:48:18;25.60;63.50
16594;DHT22;8410;52.532;13.336;2022-07-29T11:50:57;25.70;62.60
16594;DHT22;8410;52.532;13.336;2022-07-29T11:53:26;25.50;63.70
16594;DHT22;8410;52.532;13.336;2022-07-29T11:55:59;25.70;64.20
16594;DHT22;8410;52.532;13.336;2022-07-29T11:58:29;25.90;64.40
16594;DHT22;8410;52.532;13.336;2022-07-29T12:01:00;26.00;64.00
16594;DHT22;8410;52.532;13.336;2022-07-29T12:03:30;25.80;64.50
16594;DHT22;8410;52.532;13.336;2022-07-29T12:06:02;25.90;64.50
16594;DHT22;8410;52.532;13.336;2022-07-29T12:08:40;25.80;64.50
16594;DHT22;8410;52.532;13.336;2022-07-29T12:11:17;25.70;64.70
16594;DHT22;8410;52.532;13.336;2022-07-29T12:13:48;25.60;65.10
16594;DHT22;8410;52.532;13.336;2022-07-29T12:16:18;25.80;65.70
16594;DHT22;8410;52.532;13.336;2022-07-29T12:18:56;26.00;65.30
16594;DHT22;8410;52.532;13.336;2022-07-29T12:21:25;26.00;65.50
16594;DHT22;8410;52.532;13.336;2022-07-29T12:23:56;25.90;65.00
16594;DHT22;8410;52.532;13.336;2022-07-29T12:26:35;25.90;65.50
16594;DHT22;8410;52.532;13.336;2022-07-29T12:29:06;26.00;65.90
16594;DHT22;8410;52.532;13.336;2022-07-29T12:31:51;26.00;66.30
16594;DHT22;8410;52.532;13.336;2022-07-29T12:34:24;26.10;66.10
16594;DHT22;8410;52.532;13.336;2022-07-29T12:36:55;25.90;66.90
16594;DHT22;8410;52.532;13.336;2022-07-29T12:39:24;26.00;66.90
16594;DHT22;8410;52.532;13.336;2022-07-29T12:41:54;26.00;66.10
16594;DHT22;8410;52.532;13.336;2022-07-29T12:44:43;26.00;66.30
16594;DHT22;8410;52.532;13.336;2022-07-29T12:47:14;26.10;66.30
16594;DHT22;8410;52.532;13.336;2022-07-29T12:49:42;26.10;66.20
16594;DHT22;8410;52.532;13.336;2022-07-29T12:52:23;26.10;66.70
16594;DHT22;8410;52.532;13.336;2022-07-29T12:54:53;26.40;66.20
16594;DHT22;8410;52.532;13.336;2022-07-29T12:57:21;26.50;65.80
16594;DHT22;8410;52.532;13.336;2022-07-29T13:00:04;26.40;65.40
16594;DHT22;8410;52.532;13.336;2022-07-29T13:02:38;26.50;64.80
16594;DHT22;8410;52.532;13.336;2022-07-29T13:05:08;26.50;64.60
16594;DHT22;8410;52.532;13.336;2022-07-29T13:07:38;26.60;64.80
16594;DHT22;8410;52.532;13.336;2022-07-29T13:10:23;26.50;64.80
16594;DHT22;8410;52.532;13.336;2022-07-29T13:13:02;26.50;64.90
16594;DHT22;8410;52.532;13.336;2022-07-29T13:15:32;26.50;65.30
16594;DHT22;8410;52.532;13.336;2022-07-29T13:18:03;26.50;65.60
16594;DHT22;8410;52.532;13.336;2022-07-29T13:20:32;26.50;65.20
16594;DHT22;8410;52.532;13.336;2022-07-29T13:23:00;26.30;64.60
16594;DHT22;8410;52.532;13.336;2022-07-29T13:25:30;26.40;64.90
16594;DHT22;8410;52.532;13.336;2022-07-29T13:28:00;26.40;65.10
16594;DHT22;8410;52.532;13.336;2022-07-29T13:30:28;26.50;64.90
16594;DHT22;8410;52.532;13.336;2022-07-29T13:32:56;26.60;65.20
16594;DHT22;8410;52.532;13.336;2022-07-29T13:35:25;26.60;64.60
16594;DHT22;8410;52.532;13.336;2022-07-29T13:37:56;26.70;64.50
16594;DHT22;8410;52.532;13.336;2022-07-29T13:40:24;26.50;65.00
16594;DHT22;8410;52.532;13.336;2022-07-29T13:42:52;26.50;64.80
16594;DHT22;8410;52.532;13.336;2022-07-29T13:45:20;26.60;64.60
16594;DHT22;8410;52.532;13.336;2022-07-29T13:47:48;26.60;64.90
16594;DHT22;8410;52.532;13.336;2022-07-29T13:50:16;26.50;65.50
16594;DHT22;8410;52.532;13.336;2022-07-29T13:52:45;26.50;65.20
16594;DHT22;8410;52.532;13.336;2022-07-29T13:55:14;26.60;65.30
16594;DHT22;8410;52.532;13.336;2022-07-29T13:57:42;26.80;65.00
16594;DHT22;8410;52.532;13.336;2022-07-29T14:00:11;26.80;64.30
16594;DHT22;8410;52.532;13.336;2022-07-29T14:02:40;26.80;64.60
16594;DHT22;8410;52.532;13.336;2022-07-29T14:05:08;26.80;64.60
16594;DHT22;8410;52.532;13.336;2022-07-29T14:07:37;26.80;64.90
16594;DHT22;8410;52.532;13.336;2022-07-29T14:10:08;26.90;65.20
16594;DHT22;8410;52.532;13.336;2022-07-29T14:12:37;26.90;65.50
16594;DHT22;8410;52.532;13.336;2022-07-29T14:15:06;26.80;65.50
16594;DHT22;8410;52.532;13.336;2022-07-29T14:17:34;26.90;65.30
16594;DHT22;8410;52.532;13.336;2022-07-29T14:20:03;26.80;64.80
16594;DHT22;8410;52.532;13.336;2022-07-29T14:22:31;26.70;64.70
16594;DHT22;8410;52.532;13.336;2022-07-29T14:25:08;26.60;64.70
16594;DHT22;8410;52.532;13.336;2022-07-29T14:27:41;26.60;65.00
16594;DHT22;8410;52.532;13.336;2022-07-29T14:30:10;26.70;65.30
16594;DHT22;8410;52.532;13.336;2022-07-29T14:32:39;26.70;65.20
16594;DHT22;8410;52.532;13.336;2022-07-29T14:35:07;26.60;65.20
16594;DHT22;8410;52.532;13.336;2022-07-29T14:37:36;26.70;65.60
16594;DHT22;8410;52.532;13.336;2022-07-29T14:40:08;26.90;65.40
16594;DHT22;8410;52.532;13.336;2022-07-29T14:42:37;26.90;64.90
16594;DHT22;8410;52.532;13.336;2022-07-29T14:45:07;27.00;64.70
16594;DHT22;8410;52.532;13.336;2022-07-29T14:47:37;26.80;64.60
16594;DHT22;8410;52.532;13.336;2022-07-29T14:50:06;27.00;64.20
16594;DHT22;8410;52.532;13.336;2022-07-29T14:52:36;27.00;64.50
16594;DHT22;8410;52.532;13.336;2022-07-29T14:55:05;27.00;64.70
16594;DHT22;8410;52.532;13.336;2022-07-29T14:57:46;26.90;64.80
16594;DHT22;8410;52.532;13.336;2022-07-29T15:00:14;26.70;64.70
16594;DHT22;8410;52.532;13.336;2022-07-29T15:02:43;26.60;64.90
16594;DHT22;8410;52.532;13.336;2022-07-29T15:05:27;26.40;65.20
16594;DHT22;8410;52.532;13.336;2022-07-29T15:07:55;26.30;65.80
16594;DHT22;8410;52.532;13.336;2022-07-29T15:10:24;26.30;65.70
16594;DHT22;8410;52.532;13.336;2022-07-29T15:12:53;26.20;65.40
16594;DHT22;8410;52.532;13.336;2022-07-29T15:15:21;26.30;64.70
16594;DHT22;8410;52.532;13.336;2022-07-29T15:17:49;26.40;64.90
16594;DHT22;8410;52.532;13.336;2022-07-29T15:20:17;26.60;64.90
16594;DHT22;8410;52.532;13.336;2022-07-29T15:22:46;26.70;64.60
16594;DHT22;8410;52.532;13.336;2022-07-29T15:25:13;26.80;63.90
16594;DHT22;8410;52.532;13.336;2022-07-29T15:27:43;26.80;63.60
16594;DHT22;8410;52.532;13.336;2022-07-29T15:30:18;26.80;63.90
16594;DHT22;8410;52.532;13.336;2022-07-29T15:32:58;26.80;64.50
16594;DHT22;8410;52.532;13.336;2022-07-29T15:35:26;26.80;64.00
16594;DHT22;8410;52.532;13.336;2022-07-29T15:37:54;26.70;64.10
16594;DHT22;8410;52.532;13.336;2022-07-29T15:40:22;26.80;63.40
16594;DHT22;8410;52.532;13.336;2022-07-29T15:42:51;26.80;62.70
16594;DHT22;8410;52.532;13.336;2022-07-29T15:45:19;26.90;63.00
16594;DHT22;8410;52.532;13.336;2022-07-29T15:47:47;26.80;62.30
16594;DHT22;8410;52.532;13.336;2022-07-29T15:50:15;26.90;62.90
16594;DHT22;8410;52.532;13.336;2022-07-29T15:52:44;26.90;63.60
16594;DHT22;8410;52.532;13.336;2022-07-29T15:55:12;27.10;62.90
16594;DHT22;8410;52.532;13.336;2022-07-29T15:57:41;27.10;63.00
16594;DHT22;8410;52.532;13.336;2022-07-29T16:00:11;27.00;63.30
16594;DHT22;8410;52.532;13.336;2022-07-29T16:02:40;26.70;63.50
16594;DHT22;8410;52.532;13.336;2022-07-29T16:05:08;26.60;63.90
16594;DHT22;8410;52.532;13.336;2022-07-29T16:07:36;26.50;64.10